Time,TemperatureF,DewpointF,PressureIn,WindDirection,WindDirectionDegrees,WindSpeedMPH,WindSpeedGustMPH,Humidity,HourlyPrecipIn,Conditions,Clouds,dailyrainin,SolarRadiationWatts/m^2,SoftwareType,DateUTC
2013-04-10 00:00:00,62.9,58.3,30.14,ENE,71,2.0,14.0,85,0.00,,,0.00,0,Wunderground v.1.15,2013-04-10 04:00:00,
2013-04-10 01:00:00,61.8,58.2,30.13,East,80,2.0,14.0,88,0.00,,,0.00,0,Wunderground v.1.15,2013-04-10 05:00:00,
2013-04-10 02:00:00,61.5,58.2,30.11,ENE,59,2.0,14.0,89,0.00,,,0.00,0,Wunderground v.1.15,2013-04-10 06:00:00,
2013-04-10 03:00:00,61.2,58.2,30.09,ENE,76,2.0,14.0,90,0.00,,,0.00,0,Wunderground v.1.15,2013-04-10 07:00:00,
2013-04-10 04:00:00,55.1,51.6,30.08,ENE,76,0.0,14.0,88,0.00,,,0.00,0,Wunderground v.1.15,2013-04-10 08:00:00,
2013-04-10 05:00:00,52.1,49.8,30.09,ENE,76,0.0,14.0,92,0.00,,,0.00,0,Wunderground v.1.15,2013-04-10 09:00:00,
2013-04-10 06:00:00,50.0,48.1,30.08,ENE,76,0.0,14.0,93,0.00,,,0.00,0,Wunderground v.1.15,2013-04-10 10:00:00,
2013-04-10 07:00:00,48.4,46.5,30.08,ENE,76,0.0,14.0,93,0.00,,,0.00,0,Wunderground v.1.15,2013-04-10 11:00:00,
2013-04-10 08:00:00,58.4,57.8,30.09,NE,52,2.0,14.0,98,0.00,,,0.00,109,Wunderground v.1.15,2013-04-10 12:00:00,
2013-04-10 09:01:00,68.4,64.7,30.09,East,97,5.0,14.0,88,0.00,,,0.00,299,Wunderground v.1.15,2013-04-10 13:01:00,
2013-04-10 10:00:00,74.6,67.3,30.10,East,80,5.0,14.0,78,0.00,,,0.00,555,Wunderground v.1.15,2013-04-10 14:00:00,
2013-04-10 11:00:00,79.3,67.0,30.10,SE,145,6.0,14.0,66,0.00,,,0.00,833,Wunderground v.1.15,2013-04-10 15:00:00,
2013-04-10 12:00:00,80.6,64.9,30.09,SE,140,4.0,14.0,59,0.00,,,0.00,276,Wunderground v.1.15,2013-04-10 16:00:00,
2013-04-10 13:00:00,82.1,63.3,30.07,SSE,152,4.0,14.0,53,0.00,,,0.00,278,Wunderground v.1.15,2013-04-10 17:00:00,
2013-04-10 14:00:00,84.1,62.3,30.06,ESE,110,6.0,14.0,48,0.00,,,0.00,410,Wunderground v.1.15,2013-04-10 18:00:00,
2013-04-10 15:00:00,83.8,62.6,30.03,ENE,67,4.0,14.0,49,0.00,,,0.00,1004,Wunderground v.1.15,2013-04-10 19:00:00,
2013-04-10 17:00:00,85.9,62.7,29.99,East,90,7.0,14.0,46,0.00,,,0.00,603,Wunderground v.1.15,2013-04-10 21:00:00,
2013-04-10 18:00:00,84.2,63.5,29.99,East,84,5.0,14.0,50,0.00,,,0.00,309,Wunderground v.1.15,2013-04-10 22:00:00,
2013-04-10 19:00:00,80.7,67.8,29.98,ESE,119,6.0,14.0,65,0.00,,,0.00,62,Wunderground v.1.15,2013-04-10 23:00:00,
2013-04-10 20:00:00,76.4,67.9,30.00,East,101,8.0,14.0,75,0.00,,,0.00,0,Wunderground v.1.15,2013-04-11 00:00:00,
2013-04-10 21:00:00,74.6,67.7,30.01,ESE,123,5.0,14.0,79,0.00,,,0.00,0,Wunderground v.1.15,2013-04-11 01:00:00,
2013-04-10 22:00:00,73.2,68.1,30.02,ESE,123,6.0,14.0,84,0.00,,,0.00,0,Wunderground v.1.15,2013-04-11 02:00:00,
2013-04-10 23:00:00,71.9,68.2,30.02,ESE,115,6.0,14.0,88,0.00,,,0.00,0,Wunderground v.1.15,2013-04-11 03:00:00,